TimeCST,TemperatureF,Dew PointF,Humidity,Sea Level PressureIn,VisibilityMPH,Wind Direction,Wind SpeedMPH,Gust SpeedMPH,PrecipitationIn,Events,Conditions,WindDirDegrees,DateUTC
12:35 AM,68.9,57.7,68,30.08,10.0,SE,8.1,-,N/A,,Clear,130,2012-11-08 06:35:00
1:15 AM,68.0,58.1,71,30.07,10.0,SE,8.1,-,N/A,,Clear,140,2012-11-08 07:15:00
1:35 AM,68.0,58.6,72,30.07,10.0,SE,8.1,-,N/A,,Clear,140,2012-11-08 07:35:00
1:55 AM,68.0,59.0,73,30.07,10.0,SE,6.9,-,N/A,,Clear,140,2012-11-08 07:55:00
2:15 AM,68.0,59.0,73,30.06,10.0,SE,5.8,-,N/A,,Clear,140,2012-11-08 08:15:00
2:35 AM,67.3,59.0,75,30.06,10.0,SSE,6.9,-,N/A,,Clear,150,2012-11-08 08:35:00
3:15 AM,67.1,59.2,76,30.06,10.0,SE,6.9,-,N/A,,Clear,140,2012-11-08 09:15:00
3:35 AM,66.4,59.2,78,30.06,10.0,SE,5.8,-,N/A,,Clear,130,2012-11-08 09:35:00
3:55 AM,65.5,59.0,80,30.05,10.0,ESE,5.8,-,N/A,,Clear,120,2012-11-08 09:55:00
5:35 AM,65.8,59.5,80,30.05,10.0,SE,6.9,-,N/A,,Clear,140,2012-11-08 11:35:00
7:15 AM,66.0,59.9,81,30.07,10.0,SE,6.9,-,N/A,,Clear,130,2012-11-08 13:15:00
7:35 AM,67.3,60.4,79,30.07,10.0,SE,6.9,-,N/A,,Clear,130,2012-11-08 13:35:00
8:15 AM,71.1,61.2,71,30.08,10.0,SE,9.2,-,N/A,,Clear,140,2012-11-08 14:15:00
8:55 AM,73.8,61.7,66,30.09,10.0,SSE,11.5,16.1,N/A,,Clear,150,2012-11-08 14:55:00
9:15 AM,75.4,61.7,62,30.09,10.0,SE,12.7,20.7,N/A,,Clear,140,2012-11-08 15:15:00
9:35 AM,76.8,61.9,60,30.10,10.0,SSE,13.8,17.3,N/A,,Clear,150,2012-11-08 15:35:00
9:55 AM,79.0,62.2,56,30.10,10.0,SSE,12.7,21.9,N/A,,Clear,160,2012-11-08 15:55:00
10:35 AM,80.6,61.7,52,30.08,10.0,SE,12.7,21.9,N/A,,Clear,140,2012-11-08 16:35:00
10:55 AM,81.5,61.7,51,30.08,10.0,SSE,12.7,20.7,N/A,,Clear,150,2012-11-08 16:55:00
12:15 PM,86.2,57.9,38,30.03,10.0,SSE,20.7,27.6,N/A,,Clear,150,2012-11-08 18:15:00
12:35 PM,88.2,57.6,35,30.02,10.0,SSE,16.1,21.9,N/A,,Clear,150,2012-11-08 18:35:00
1:35 PM,88.9,55.8,32,29.97,10.0,ESE,17.3,24.2,N/A,,Clear,120,2012-11-08 19:35:00
1:55 PM,89.8,54.7,30,29.97,10.0,SE,17.3,24.2,N/A,,Clear,140,2012-11-08 19:55:00
3:15 PM,89.4,54.5,30,29.95,10.0,SSE,11.5,20.7,N/A,,Clear,160,2012-11-08 21:15:00
3:35 PM,89.1,55.0,31,29.94,10.0,SE,12.7,25.3,N/A,,Clear,140,2012-11-08 21:35:00
3:55 PM,88.7,54.9,32,29.94,10.0,SSE,18.4,25.3,N/A,,Clear,150,2012-11-08 21:55:00
4:15 PM,88.0,55.4,33,29.94,10.0,SE,12.7,21.9,N/A,,Clear,130,2012-11-08 22:15:00
4:35 PM,87.8,55.6,33,29.94,10.0,ESE,13.8,23.0,N/A,,Clear,120,2012-11-08 22:35:00
4:55 PM,86.9,55.4,34,29.94,10.0,ESE,16.1,24.2,N/A,,Clear,120,2012-11-08 22:55:00
5:15 PM,86.0,55.4,35,29.94,10.0,SE,11.5,21.9,N/A,,Clear,130,2012-11-08 23:15:00
5:35 PM,84.7,55.4,37,29.95,10.0,SE,10.4,21.9,N/A,,Clear,130,2012-11-08 23:35:00
5:55 PM,83.7,55.8,38,29.96,10.0,SE,12.7,18.4,N/A,,Clear,130,2012-11-08 23:55:00
6:15 PM,82.6,56.7,41,29.96,10.0,ESE,13.8,21.9,N/A,,Clear,120,2012-11-09 00:15:00
6:35 PM,81.7,58.6,45,29.97,10.0,SE,12.7,23.0,N/A,,Clear,130,2012-11-09 00:35:00
6:55 PM,80.2,59.5,49,29.97,10.0,ESE,11.5,16.1,N/A,,Clear,120,2012-11-09 00:55:00
7:15 PM,79.2,60.4,53,29.98,10.0,SE,12.7,24.2,N/A,,Clear,130,2012-11-09 01:15:00
7:35 PM,78.3,60.8,55,29.99,10.0,SE,16.1,26.5,N/A,,Clear,130,2012-11-09 01:35:00
7:55 PM,77.2,61.0,57,30.00,10.0,SE,13.8,23.0,N/A,,Clear,130,2012-11-09 01:55:00
8:15 PM,76.5,61.3,59,30.00,10.0,SE,15.0,27.6,N/A,,Clear,130,2012-11-09 02:15:00
8:35 PM,75.7,61.2,60,30.01,10.0,SE,17.3,23.0,N/A,,Clear,130,2012-11-09 02:35:00
8:55 PM,75.2,61.3,62,30.01,10.0,SE,11.5,19.6,N/A,,Clear,140,2012-11-09 02:55:00
9:15 PM,74.5,61.7,64,30.02,10.0,SE,10.4,18.4,N/A,,Clear,130,2012-11-09 03:15:00
9:35 PM,74.3,62.1,65,30.02,10.0,SE,11.5,21.9,N/A,,Clear,140,2012-11-09 03:35:00
9:55 PM,73.8,62.6,68,30.02,10.0,SE,11.5,18.4,N/A,,Clear,140,2012-11-09 03:55:00
10:15 PM,73.6,62.6,68,30.02,10.0,SE,15.0,19.6,N/A,,Clear,130,2012-11-09 04:15:00
10:35 PM,73.4,62.6,69,30.02,10.0,SE,9.2,19.6,N/A,,Clear,130,2012-11-09 04:35:00
10:55 PM,73.0,62.6,70,30.02,10.0,SE,11.5,17.3,N/A,,Clear,140,2012-11-09 04:55:00
11:15 PM,72.7,62.8,71,30.02,10.0,SE,10.4,17.3,N/A,,Clear,140,2012-11-09 05:15:00
11:35 PM,72.7,63.0,71,30.02,10.0,SE,10.4,-,N/A,,Clear,140,2012-11-09 05:35:00
11:55 PM,72.5,63.0,72,30.02,10.0,SE,10.4,18.4,N/A,,Clear,140,2012-11-09 05:55:00